Time,TemperatureF,DewpointF,PressureIn,WindDirection,WindDirectionDegrees,WindSpeedMPH,WindSpeedGustMPH,Humidity,HourlyPrecipIn,Conditions,Clouds,dailyrainin,SoftwareType,DateUTC
2014-01-25 00:03:00,12.0,7.0,29.97,SSE,157,0.0,-999.0,80,-99.99,,,0.00,Acu-Link.com,2014-01-25 05:03:00,
2014-01-25 00:18:00,12.4,6.6,29.96,NNW,337,0.0,-999.0,77,-99.99,,,0.00,Acu-Link.com,2014-01-25 05:18:00,
2014-01-25 00:33:00,11.8,6.0,29.94,NW,315,0.0,-999.0,77,-99.99,,,0.00,Acu-Link.com,2014-01-25 05:33:00,
2014-01-25 00:48:00,11.7,5.9,29.92,NNW,337,0.0,-999.0,77,-99.99,,,0.00,Acu-Link.com,2014-01-25 05:48:00,
2014-01-25 01:04:00,11.8,8.2,29.93,North,0,0.0,-999.0,85,-99.99,,,0.00,Acu-Link.com,2014-01-25 06:04:00,
2014-01-25 01:19:00,11.3,7.7,29.93,East,90,0.0,-999.0,85,-99.99,,,0.00,Acu-Link.com,2014-01-25 06:19:00,
2014-01-25 01:34:00,11.7,8.1,29.91,ESE,112,0.0,-999.0,85,-99.99,,,0.00,Acu-Link.com,2014-01-25 06:34:00,
2014-01-25 01:49:00,10.9,7.0,29.90,NNW,337,0.0,-999.0,84,-99.99,,,0.00,Acu-Link.com,2014-01-25 06:49:00,
2014-01-25 02:05:00,10.2,6.3,29.90,NE,45,0.0,-999.0,84,-99.99,,,0.00,Acu-Link.com,2014-01-25 07:05:00,
2014-01-25 02:20:00,11.1,7.7,29.90,South,180,0.0,-999.0,86,-99.99,,,0.00,Acu-Link.com,2014-01-25 07:20:00,
2014-01-25 02:35:00,11.7,7.6,29.87,SSE,157,2.2,-999.0,83,-99.99,,,0.00,Acu-Link.com,2014-01-25 07:35:00,
2014-01-25 02:50:00,11.1,7.2,29.86,ESE,112,0.0,-999.0,84,-99.99,,,0.00,Acu-Link.com,2014-01-25 07:50:00,
2014-01-25 03:05:00,11.5,8.1,29.87,SSE,157,0.0,-999.0,86,-99.99,,,0.00,Acu-Link.com,2014-01-25 08:05:00,
2014-01-25 03:20:00,12.7,9.6,29.86,NNW,337,0.0,-999.0,87,-99.99,,,0.00,Acu-Link.com,2014-01-25 08:20:00,
2014-01-25 03:35:00,13.6,10.7,29.85,NW,315,0.0,-999.0,88,-99.99,,,0.00,Acu-Link.com,2014-01-25 08:35:00,
2014-01-25 03:50:00,18.0,10.2,29.85,SSW,202,2.2,-999.0,71,-99.99,,,0.00,Acu-Link.com,2014-01-25 08:50:00,
2014-01-25 04:05:00,18.7,10.6,29.84,SSW,202,0.0,-999.0,70,-99.99,,,0.00,Acu-Link.com,2014-01-25 09:05:00,
2014-01-25 04:21:00,19.8,10.3,29.83,SSE,157,0.0,-999.0,66,-99.99,,,0.00,Acu-Link.com,2014-01-25 09:21:00,
2014-01-25 04:36:00,21.0,10.4,29.82,South,180,0.0,-999.0,63,-99.99,,,0.00,Acu-Link.com,2014-01-25 09:36:00,
2014-01-25 04:51:00,22.5,9.6,29.81,South,180,3.7,-999.0,57,-99.99,,,0.00,Acu-Link.com,2014-01-25 09:51:00,
2014-01-25 05:06:00,23.2,9.9,29.79,South,180,7.8,-999.0,56,-99.99,,,0.00,Acu-Link.com,2014-01-25 10:06:00,
2014-01-25 05:21:00,23.5,9.3,29.77,SSW,202,5.8,-999.0,54,-99.99,,,0.00,Acu-Link.com,2014-01-25 10:21:00,
2014-01-25 05:36:00,23.7,9.5,29.80,South,180,3.7,-999.0,54,-99.99,,,0.00,Acu-Link.com,2014-01-25 10:36:00,
2014-01-25 05:51:00,23.9,10.1,29.79,South,180,4.2,-999.0,55,-99.99,,,0.00,Acu-Link.com,2014-01-25 10:51:00,
2014-01-25 06:06:00,24.1,9.9,29.78,SW,225,6.3,-999.0,54,-99.99,,,0.00,Acu-Link.com,2014-01-25 11:06:00,
2014-01-25 06:21:00,24.4,9.8,29.77,SSW,202,4.7,-999.0,53,-99.99,,,0.00,Acu-Link.com,2014-01-25 11:21:00,
2014-01-25 06:37:00,25.2,10.1,29.76,SSW,202,6.8,-999.0,52,-99.99,,,0.00,Acu-Link.com,2014-01-25 11:37:00,
2014-01-25 06:52:00,25.7,9.7,29.74,SSW,202,8.9,-999.0,50,-99.99,,,0.00,Acu-Link.com,2014-01-25 11:52:00,
2014-01-25 07:07:00,25.9,9.8,29.74,SSW,202,8.9,-999.0,50,-99.99,,,0.00,Acu-Link.com,2014-01-25 12:07:00,
2014-01-25 07:22:00,25.5,9.9,29.72,SSW,202,9.9,-999.0,51,-99.99,,,0.00,Acu-Link.com,2014-01-25 12:22:00,
2014-01-25 07:37:00,25.0,9.9,29.70,SSW,202,7.8,-999.0,52,-99.99,,,0.00,Acu-Link.com,2014-01-25 12:37:00,
2014-01-25 07:52:00,24.4,9.8,29.72,South,180,6.3,-999.0,53,-99.99,,,0.00,Acu-Link.com,2014-01-25 12:52:00,
2014-01-25 08:07:00,24.1,9.9,29.71,SSW,202,5.3,-999.0,54,-99.99,,,0.00,Acu-Link.com,2014-01-25 13:07:00,
2014-01-25 08:23:00,24.3,10.5,29.71,SSW,202,6.3,-999.0,55,-99.99,,,0.00,Acu-Link.com,2014-01-25 13:23:00,
2014-01-25 08:38:00,24.3,10.9,29.69,SSW,202,6.3,-999.0,56,-99.99,,,0.00,Acu-Link.com,2014-01-25 13:38:00,
2014-01-25 08:53:00,25.0,11.5,29.68,SSW,202,3.7,-999.0,56,-99.99,,,0.00,Acu-Link.com,2014-01-25 13:53:00,
2014-01-25 09:08:00,25.9,11.6,29.67,South,180,6.3,-999.0,54,-99.99,,,0.00,Acu-Link.com,2014-01-25 14:08:00,
2014-01-25 09:23:00,27.0,12.6,29.67,SSW,202,8.3,-999.0,54,-99.99,,,0.00,Acu-Link.com,2014-01-25 14:23:00,
2014-01-25 09:38:00,27.1,13.1,29.66,SW,225,8.9,-999.0,55,-99.99,,,0.00,Acu-Link.com,2014-01-25 14:38:00,
2014-01-25 09:53:00,27.7,13.7,29.64,South,180,7.8,-999.0,55,-99.99,,,0.00,Acu-Link.com,2014-01-25 14:53:00,
2014-01-25 10:08:00,28.0,13.9,29.64,NNE,22,4.2,-999.0,55,-99.99,,,0.00,Acu-Link.com,2014-01-25 15:08:00,
2014-01-25 10:24:00,29.3,14.7,29.64,SSW,202,5.3,-999.0,54,-99.99,,,0.00,Acu-Link.com,2014-01-25 15:24:00,
2014-01-25 10:39:00,30.0,15.8,29.66,North,0,3.2,-999.0,55,-99.99,,,0.00,Acu-Link.com,2014-01-25 15:39:00,
2014-01-25 10:57:00,29.5,15.3,29.65,SSW,202,6.8,-999.0,55,-99.99,,,0.00,Acu-Link.com,2014-01-25 15:57:00,
2014-01-25 11:32:00,30.7,16.5,29.65,SW,225,4.2,-999.0,55,-99.99,,,0.00,Acu-Link.com,2014-01-25 16:32:00,
2014-01-25 11:47:00,31.3,16.6,29.64,South,180,3.2,-999.0,54,-99.99,,,0.00,Acu-Link.com,2014-01-25 16:47:00,
2014-01-25 12:02:00,32.4,17.2,29.64,SSE,157,2.2,-999.0,53,-99.99,,,0.00,Acu-Link.com,2014-01-25 17:02:00,
2014-01-25 12:17:00,33.6,17.9,29.66,NE,45,0.0,-999.0,52,-99.99,,,0.00,Acu-Link.com,2014-01-25 17:17:00,
2014-01-25 12:33:00,35.4,18.6,29.64,ENE,67,1.7,-999.0,50,-99.99,,,0.00,Acu-Link.com,2014-01-25 17:33:00,
2014-01-25 12:48:00,35.6,18.3,29.63,South,180,3.7,-999.0,49,-99.99,,,0.00,Acu-Link.com,2014-01-25 17:48:00,
2014-01-25 13:03:00,35.8,19.0,29.62,East,90,3.2,-999.0,50,-99.99,,,0.00,Acu-Link.com,2014-01-25 18:03:00,
2014-01-25 13:18:00,37.0,19.6,29.61,SSW,202,3.7,-999.0,49,-99.99,,,0.00,Acu-Link.com,2014-01-25 18:18:00,
2014-01-25 13:33:00,39.2,20.7,29.60,SE,135,2.2,-999.0,47,-99.99,,,0.00,Acu-Link.com,2014-01-25 18:33:00,
2014-01-25 13:48:00,40.5,21.4,29.59,NW,315,2.7,-999.0,46,-99.99,,,0.00,Acu-Link.com,2014-01-25 18:48:00,
2014-01-25 14:03:00,41.7,21.9,29.59,NW,315,3.7,-999.0,45,-99.99,,,0.00,Acu-Link.com,2014-01-25 19:03:00,
2014-01-25 14:18:00,40.1,21.5,29.59,East,90,2.2,-999.0,47,-99.99,,,0.00,Acu-Link.com,2014-01-25 19:18:00,
2014-01-25 14:33:00,40.1,22.5,29.58,ENE,67,0.0,-999.0,49,-99.99,,,0.00,Acu-Link.com,2014-01-25 19:33:00,
2014-01-25 14:49:00,40.6,23.0,29.59,North,0,2.2,-999.0,49,-99.99,,,0.00,Acu-Link.com,2014-01-25 19:49:00,
2014-01-25 15:04:00,41.4,23.7,29.60,SSW,202,1.7,-999.0,49,-99.99,,,0.00,Acu-Link.com,2014-01-25 20:04:00,
2014-01-25 15:19:00,41.5,24.3,29.59,South,180,0.0,-999.0,50,-99.99,,,0.00,Acu-Link.com,2014-01-25 20:19:00,
2014-01-25 15:34:00,42.6,25.3,29.59,ESE,112,1.1,-999.0,50,-99.99,,,0.00,Acu-Link.com,2014-01-25 20:34:00,
2014-01-25 15:49:00,41.9,24.6,29.59,NNW,337,2.7,-999.0,50,-99.99,,,0.00,Acu-Link.com,2014-01-25 20:49:00,
2014-01-25 16:04:00,43.2,25.8,29.59,East,90,0.0,-999.0,50,-99.99,,,0.00,Acu-Link.com,2014-01-25 21:04:00,
2014-01-25 16:19:00,43.0,25.6,29.58,SW,225,1.7,-999.0,50,-99.99,,,0.00,Acu-Link.com,2014-01-25 21:19:00,
2014-01-25 16:35:00,42.4,26.0,29.59,SSW,202,2.7,-999.0,52,-99.99,,,0.00,Acu-Link.com,2014-01-25 21:35:00,
2014-01-25 16:50:00,42.3,25.9,29.60,SSW,202,4.7,-999.0,52,-99.99,,,0.00,Acu-Link.com,2014-01-25 21:50:00,
2014-01-25 17:05:00,42.1,26.2,29.61,SW,225,1.7,-999.0,53,-99.99,,,0.00,Acu-Link.com,2014-01-25 22:05:00,
2014-01-25 17:20:00,41.4,26.0,29.61,South,180,6.3,-999.0,54,-99.99,,,0.00,Acu-Link.com,2014-01-25 22:20:00,
2014-01-25 17:35:00,40.8,25.9,29.63,ESE,112,1.1,-999.0,55,-99.99,,,0.00,Acu-Link.com,2014-01-25 22:35:00,
2014-01-25 17:50:00,40.3,26.3,29.62,SW,225,4.2,-999.0,57,-99.99,,,0.00,Acu-Link.com,2014-01-25 22:50:00,
2014-01-25 18:06:00,39.6,26.1,29.63,South,180,0.0,-999.0,58,-99.99,,,0.00,Acu-Link.com,2014-01-25 23:06:00,
2014-01-25 18:21:00,38.8,25.7,29.63,SSW,202,2.7,-999.0,59,-99.99,,,0.00,Acu-Link.com,2014-01-25 23:21:00,
2014-01-25 18:36:00,38.3,25.6,29.64,SSW,202,0.0,-999.0,60,-99.99,,,0.00,Acu-Link.com,2014-01-25 23:36:00,
2014-01-25 18:51:00,37.0,24.8,29.64,East,90,0.0,-999.0,61,-99.99,,,0.00,Acu-Link.com,2014-01-25 23:51:00,
2014-01-25 19:06:00,36.0,24.6,29.65,SSW,202,1.7,-999.0,63,-99.99,,,0.00,Acu-Link.com,2014-01-26 00:06:00,
2014-01-25 19:21:00,37.0,25.2,29.65,South,180,4.2,-999.0,62,-99.99,,,0.00,Acu-Link.com,2014-01-26 00:21:00,
2014-01-25 19:37:00,37.2,25.4,29.66,SSW,202,2.7,-999.0,62,-99.99,,,0.00,Acu-Link.com,2014-01-26 00:37:00,
2014-01-25 19:52:00,37.6,25.8,29.66,SSW,202,3.2,-999.0,62,-99.99,,,0.00,Acu-Link.com,2014-01-26 00:52:00,
2014-01-25 20:07:00,36.3,24.9,29.66,South,180,2.2,-999.0,63,-99.99,,,0.00,Acu-Link.com,2014-01-26 01:07:00,
2014-01-25 20:22:00,34.9,24.7,29.66,SSE,157,2.7,-999.0,66,-99.99,,,0.00,Acu-Link.com,2014-01-26 01:22:00,
2014-01-25 20:37:00,34.5,25.0,29.67,South,180,1.1,-999.0,68,-99.99,,,0.00,Acu-Link.com,2014-01-26 01:37:00,
2014-01-25 20:52:00,34.5,25.0,29.67,South,180,3.2,-999.0,68,-99.99,,,0.00,Acu-Link.com,2014-01-26 01:52:00,
2014-01-25 21:07:00,33.4,24.7,29.67,SW,225,2.2,-999.0,70,-99.99,,,0.00,Acu-Link.com,2014-01-26 02:07:00,
2014-01-25 21:22:00,31.3,23.3,29.67,SSE,157,0.0,-999.0,72,-99.99,,,0.00,Acu-Link.com,2014-01-26 02:22:00,
2014-01-25 21:37:00,30.0,23.4,29.68,SW,225,0.0,-999.0,76,-99.99,,,0.00,Acu-Link.com,2014-01-26 02:37:00,
2014-01-25 21:52:00,29.1,22.5,29.68,NW,315,0.0,-999.0,76,-99.99,,,0.00,Acu-Link.com,2014-01-26 02:52:00,
2014-01-25 22:08:00,28.2,23.1,29.68,SW,225,0.0,-999.0,81,-99.99,,,0.00,Acu-Link.com,2014-01-26 03:08:00,
2014-01-25 22:23:00,27.3,22.3,29.69,SSW,202,0.0,-999.0,81,-99.99,,,0.00,Acu-Link.com,2014-01-26 03:23:00,
2014-01-25 22:38:00,27.0,22.5,29.68,South,180,1.7,-999.0,83,-99.99,,,0.00,Acu-Link.com,2014-01-26 03:38:00,
2014-01-25 22:53:00,26.6,22.4,29.68,SW,225,0.0,-999.0,84,-99.99,,,0.00,Acu-Link.com,2014-01-26 03:53:00,
2014-01-25 23:08:00,25.5,22.2,29.69,South,180,2.2,-999.0,87,-99.99,,,0.00,Acu-Link.com,2014-01-26 04:08:00,
2014-01-25 23:24:00,25.3,22.0,29.70,SSW,202,0.0,-999.0,87,-99.99,,,0.00,Acu-Link.com,2014-01-26 04:24:00,
2014-01-25 23:39:00,24.6,21.3,29.71,WSW,247,0.0,-999.0,87,-99.99,,,0.00,Acu-Link.com,2014-01-26 04:39:00,
2014-01-25 23:54:00,24.3,21.0,29.71,North,0,0.0,-999.0,87,-99.99,,,0.00,Acu-Link.com,2014-01-26 04:54:00,